sensor_id;sensor_type;location;lat;lon;timestamp;P1;durP1;ratioP1;P2;durP2;ratioP2
10052;SDS011;52418;53.134;8.236;2022-10-17T00:02:16;1.10;;;1.10;;
10052;SDS011;52418;53.134;8.236;2022-10-17T00:04:41;1.10;;;1.10;;
10052;SDS011;52418;53.134;8.236;2022-10-17T00:07:06;1.10;;;1.10;;
10052;SDS011;52418;53.134;8.236;2022-10-17T00:09:31;1.10;;;1.10;;
10052;SDS011;52418;53.134;8.236;2022-10-17T00:11:56;1.10;;;1.10;;
10052;SDS011;52418;53.134;8.236;2022-10-17T00:14:21;1.10;;;1.10;;
10052;SDS011;52418;53.134;8.236;2022-10-17T00:16:47;1.10;;;1.10;;
10052;SDS011;52418;53.134;8.236;2022-10-17T00:19:12;1.13;;;1.13;;
10052;SDS011;52418;53.134;8.236;2022-10-17T00:21:37;1.00;;;1.00;;
10052;SDS011;52418;53.134;8.236;2022-10-17T00:24:02;1.20;;;1.20;;
10052;SDS011;52418;53.134;8.236;2022-10-17T00:26:27;1.10;;;1.10;;
10052;SDS011;52418;53.134;8.236;2022-10-17T00:28:53;1.10;;;1.10;;
10052;SDS011;52418;53.134;8.236;2022-10-17T00:31:30;1.10;;;1.10;;
10052;SDS011;52418;53.134;8.236;2022-10-17T00:33:55;1.10;;;1.10;;
10052;SDS011;52418;53.134;8.236;2022-10-17T00:36:21;1.10;;;1.10;;
10052;SDS011;52418;53.134;8.236;2022-10-17T00:38:49;1.10;;;1.10;;
10052;SDS011;52418;53.134;8.236;2022-10-17T00:41:15;1.10;;;1.10;;
10052;SDS011;52418;53.134;8.236;2022-10-17T00:43:48;1.00;;;1.00;;
10052;SDS011;52418;53.134;8.236;2022-10-17T00:46:13;1.10;;;1.10;;
10052;SDS011;52418;53.134;8.236;2022-10-17T00:48:38;1.10;;;1.10;;
10052;SDS011;52418;53.134;8.236;2022-10-17T00:51:03;1.10;;;1.10;;
10052;SDS011;52418;53.134;8.236;2022-10-17T00:53:29;1.10;;;1.10;;
10052;SDS011;52418;53.134;8.236;2022-10-17T00:55:54;1.10;;;1.10;;
10052;SDS011;52418;53.134;8.236;2022-10-17T00:58:19;1.10;;;1.10;;
10052;SDS011;52418;53.134;8.236;2022-10-17T01:00:45;1.10;;;1.10;;
10052;SDS011;52418;53.134;8.236;2022-10-17T01:03:11;1.07;;;1.07;;
10052;SDS011;52418;53.134;8.236;2022-10-17T01:05:36;1.00;;;1.00;;
10052;SDS011;52418;53.134;8.236;2022-10-17T01:08:02;1.10;;;1.10;;
10052;SDS011;52418;53.134;8.236;2022-10-17T01:10:36;1.00;;;1.00;;
10052;SDS011;52418;53.134;8.236;2022-10-17T01:13:05;1.00;;;1.00;;
10052;SDS011;52418;53.134;8.236;2022-10-17T01:18:25;1.00;;;1.00;;
10052;SDS011;52418;53.134;8.236;2022-10-17T01:21:08;1.10;;;1.10;;
10052;SDS011;52418;53.134;8.236;2022-10-17T01:29:19;1.00;;;1.00;;
10052;SDS011;52418;53.134;8.236;2022-10-17T01:31:58;1.10;;;1.10;;
10052;SDS011;52418;53.134;8.236;2022-10-17T01:41:56;1.10;;;1.10;;
10052;SDS011;52418;53.134;8.236;2022-10-17T01:44:38;1.00;;;1.00;;
10052;SDS011;52418;53.134;8.236;2022-10-17T01:47:06;1.10;;;1.10;;
10052;SDS011;52418;53.134;8.236;2022-10-17T01:49:31;1.10;;;1.10;;
10052;SDS011;52418;53.134;8.236;2022-10-17T01:52:03;1.10;;;1.10;;
10052;SDS011;52418;53.134;8.236;2022-10-17T01:54:31;1.10;;;1.10;;
10052;SDS011;52418;53.134;8.236;2022-10-17T01:56:59;1.10;;;1.10;;
10052;SDS011;52418;53.134;8.236;2022-10-17T01:59:27;1.10;;;1.10;;
10052;SDS011;52418;53.134;8.236;2022-10-17T02:01:54;1.13;;;1.13;;
10052;SDS011;52418;53.134;8.236;2022-10-17T02:04:20;1.10;;;1.10;;
10052;SDS011;52418;53.134;8.236;2022-10-17T02:06:45;1.00;;;1.00;;
10052;SDS011;52418;53.134;8.236;2022-10-17T02:09:15;1.10;;;1.10;;
10052;SDS011;52418;53.134;8.236;2022-10-17T02:11:41;1.00;;;1.00;;
10052;SDS011;52418;53.134;8.236;2022-10-17T02:19:27;1.10;;;1.10;;
10052;SDS011;52418;53.134;8.236;2022-10-17T02:22:15;1.10;;;1.10;;
10052;SDS011;52418;53.134;8.236;2022-10-17T02:27:47;1.10;;;1.10;;
10052;SDS011;52418;53.134;8.236;2022-10-17T02:30:14;1.10;;;1.10;;
10052;SDS011;52418;53.134;8.236;2022-10-17T02:32:52;1.10;;;1.10;;
10052;SDS011;52418;53.134;8.236;2022-10-17T02:35:19;1.20;;;1.20;;
10052;SDS011;52418;53.134;8.236;2022-10-17T02:37:46;1.10;;;1.10;;
10052;SDS011;52418;53.134;8.236;2022-10-17T02:40:12;1.10;;;1.10;;
10052;SDS011;52418;53.134;8.236;2022-10-17T02:42:38;1.10;;;1.10;;
10052;SDS011;52418;53.134;8.236;2022-10-17T02:45:13;1.07;;;1.07;;
10052;SDS011;52418;53.134;8.236;2022-10-17T02:47:42;1.10;;;1.10;;
10052;SDS011;52418;53.134;8.236;2022-10-17T02:50:09;1.20;;;1.20;;
10052;SDS011;52418;53.134;8.236;2022-10-17T02:52:45;1.10;;;1.10;;
10052;SDS011;52418;53.134;8.236;2022-10-17T02:55:19;1.20;;;1.20;;
10052;SDS011;52418;53.134;8.236;2022-10-17T02:57:47;1.17;;;1.17;;
10052;SDS011;52418;53.134;8.236;2022-10-17T03:00:14;1.10;;;1.10;;
10052;SDS011;52418;53.134;8.236;2022-10-17T03:02:41;1.00;;;1.00;;
10052;SDS011;52418;53.134;8.236;2022-10-17T03:05:07;1.17;;;1.17;;
10052;SDS011;52418;53.134;8.236;2022-10-17T03:07:32;1.20;;;1.20;;
10052;SDS011;52418;53.134;8.236;2022-10-17T03:09:58;1.10;;;1.10;;
10052;SDS011;52418;53.134;8.236;2022-10-17T03:12:23;1.15;;;1.15;;
10052;SDS011;52418;53.134;8.236;2022-10-17T03:14:48;1.20;;;1.20;;
10052;SDS011;52418;53.134;8.236;2022-10-17T03:17:13;1.20;;;1.20;;
10052;SDS011;52418;53.134;8.236;2022-10-17T03:19:38;1.10;;;1.10;;
10052;SDS011;52418;53.134;8.236;2022-10-17T03:22:03;1.20;;;1.20;;
10052;SDS011;52418;53.134;8.236;2022-10-17T03:24:28;1.10;;;1.10;;
10052;SDS011;52418;53.134;8.236;2022-10-17T03:26:54;1.10;;;1.10;;
10052;SDS011;52418;53.134;8.236;2022-10-17T03:29:19;1.00;;;1.00;;
10052;SDS011;52418;53.134;8.236;2022-10-17T03:31:44;1.20;;;1.20;;
10052;SDS011;52418;53.134;8.236;2022-10-17T03:34:09;1.10;;;1.10;;
10052;SDS011;52418;53.134;8.236;2022-10-17T03:36:34;1.10;;;1.10;;
10052;SDS011;52418;53.134;8.236;2022-10-17T03:38:59;1.03;;;1.03;;
10052;SDS011;52418;53.134;8.236;2022-10-17T03:41:25;1.00;;;1.00;;
10052;SDS011;52418;53.134;8.236;2022-10-17T03:43:51;1.13;;;1.13;;
10052;SDS011;52418;53.134;8.236;2022-10-17T03:46:17;1.10;;;1.10;;
10052;SDS011;52418;53.134;8.236;2022-10-17T03:48:42;1.10;;;1.10;;
10052;SDS011;52418;53.134;8.236;2022-10-17T03:51:08;1.10;;;1.10;;
10052;SDS011;52418;53.134;8.236;2022-10-17T03:53:33;1.20;;;1.20;;
10052;SDS011;52418;53.134;8.236;2022-10-17T03:56:09;1.10;;;1.10;;
10052;SDS011;52418;53.134;8.236;2022-10-17T03:58:34;1.20;;;1.20;;
10052;SDS011;52418;53.134;8.236;2022-10-17T04:01:03;1.40;;;1.30;;
10052;SDS011;52418;53.134;8.236;2022-10-17T04:03:28;1.20;;;1.20;;
10052;SDS011;52418;53.134;8.236;2022-10-17T04:05:54;1.20;;;1.20;;
10052;SDS011;52418;53.134;8.236;2022-10-17T04:08:21;1.20;;;1.20;;
10052;SDS011;52418;53.134;8.236;2022-10-17T04:10:47;1.20;;;1.20;;
10052;SDS011;52418;53.134;8.236;2022-10-17T04:13:12;1.20;;;1.20;;
10052;SDS011;52418;53.134;8.236;2022-10-17T04:15:37;1.10;;;1.10;;
10052;SDS011;52418;53.134;8.236;2022-10-17T04:18:03;1.30;;;1.30;;
10052;SDS011;52418;53.134;8.236;2022-10-17T04:20:28;1.20;;;1.20;;
10052;SDS011;52418;53.134;8.236;2022-10-17T04:22:53;1.10;;;1.10;;
10052;SDS011;52418;53.134;8.236;2022-10-17T04:25:18;1.17;;;1.17;;
10052;SDS011;52418;53.134;8.236;2022-10-17T04:27:43;1.10;;;1.10;;
10052;SDS011;52418;53.134;8.236;2022-10-17T04:30:23;1.10;;;1.10;;
10052;SDS011;52418;53.134;8.236;2022-10-17T04:32:48;1.10;;;1.10;;
10052;SDS011;52418;53.134;8.236;2022-10-17T04:35:13;1.10;;;1.10;;
10052;SDS011;52418;53.134;8.236;2022-10-17T04:37:38;1.10;;;1.10;;
10052;SDS011;52418;53.134;8.236;2022-10-17T04:40:03;1.10;;;1.10;;
10052;SDS011;52418;53.134;8.236;2022-10-17T04:42:29;1.07;;;1.07;;
10052;SDS011;52418;53.134;8.236;2022-10-17T04:44:54;1.00;;;1.00;;
10052;SDS011;52418;53.134;8.236;2022-10-17T04:47:19;1.10;;;1.10;;
10052;SDS011;52418;53.134;8.236;2022-10-17T04:49:45;1.00;;;1.00;;
10052;SDS011;52418;53.134;8.236;2022-10-17T04:52:18;1.10;;;1.10;;
10052;SDS011;52418;53.134;8.236;2022-10-17T04:54:43;1.20;;;1.20;;
10052;SDS011;52418;53.134;8.236;2022-10-17T04:57:08;1.00;;;1.00;;
10052;SDS011;52418;53.134;8.236;2022-10-17T04:59:33;1.13;;;1.13;;
10052;SDS011;52418;53.134;8.236;2022-10-17T05:01:58;1.00;;;1.00;;
10052;SDS011;52418;53.134;8.236;2022-10-17T05:04:24;1.10;;;1.10;;
10052;SDS011;52418;53.134;8.236;2022-10-17T05:06:49;1.10;;;1.10;;
10052;SDS011;52418;53.134;8.236;2022-10-17T05:09:14;1.10;;;1.10;;
10052;SDS011;52418;53.134;8.236;2022-10-17T05:11:40;1.00;;;1.00;;
10052;SDS011;52418;53.134;8.236;2022-10-17T05:16:41;1.10;;;1.10;;
10052;SDS011;52418;53.134;8.236;2022-10-17T05:19:06;1.13;;;1.13;;
10052;SDS011;52418;53.134;8.236;2022-10-17T05:21:32;1.20;;;1.20;;
10052;SDS011;52418;53.134;8.236;2022-10-17T05:23:57;1.20;;;1.20;;
10052;SDS011;52418;53.134;8.236;2022-10-17T05:26:23;1.17;;;1.17;;
10052;SDS011;52418;53.134;8.236;2022-10-17T05:28:48;1.20;;;1.20;;
10052;SDS011;52418;53.134;8.236;2022-10-17T05:31:13;1.20;;;1.20;;
10052;SDS011;52418;53.134;8.236;2022-10-17T05:33:39;1.30;;;1.30;;
10052;SDS011;52418;53.134;8.236;2022-10-17T05:36:04;1.20;;;1.20;;
10052;SDS011;52418;53.134;8.236;2022-10-17T05:41:29;1.23;;;1.23;;
10052;SDS011;52418;53.134;8.236;2022-10-17T05:43:54;1.20;;;1.20;;
10052;SDS011;52418;53.134;8.236;2022-10-17T05:46:19;1.20;;;1.20;;
10052;SDS011;52418;53.134;8.236;2022-10-17T05:48:44;1.10;;;1.10;;
10052;SDS011;52418;53.134;8.236;2022-10-17T05:51:10;1.20;;;1.20;;
10052;SDS011;52418;53.134;8.236;2022-10-17T05:53:37;1.20;;;1.20;;
10052;SDS011;52418;53.134;8.236;2022-10-17T05:56:03;1.27;;;1.27;;
10052;SDS011;52418;53.134;8.236;2022-10-17T05:58:29;1.20;;;1.20;;
10052;SDS011;52418;53.134;8.236;2022-10-17T06:00:58;1.10;;;1.10;;
10052;SDS011;52418;53.134;8.236;2022-10-17T06:03:23;1.10;;;1.10;;
10052;SDS011;52418;53.134;8.236;2022-10-17T06:05:48;1.10;;;1.10;;
10052;SDS011;52418;53.134;8.236;2022-10-17T06:08:14;1.10;;;1.10;;
10052;SDS011;52418;53.134;8.236;2022-10-17T06:10:40;1.00;;;1.00;;
10052;SDS011;52418;53.134;8.236;2022-10-17T06:13:05;1.00;;;1.00;;
10052;SDS011;52418;53.134;8.236;2022-10-17T06:15:30;1.00;;;1.00;;
10052;SDS011;52418;53.134;8.236;2022-10-17T06:17:55;1.10;;;1.10;;
10052;SDS011;52418;53.134;8.236;2022-10-17T06:20:21;1.00;;;1.00;;
10052;SDS011;52418;53.134;8.236;2022-10-17T06:22:46;1.00;;;1.00;;
10052;SDS011;52418;53.134;8.236;2022-10-17T06:25:11;1.00;;;1.00;;
10052;SDS011;52418;53.134;8.236;2022-10-17T06:27:36;1.00;;;1.00;;
10052;SDS011;52418;53.134;8.236;2022-10-17T06:30:08;0.90;;;0.90;;
10052;SDS011;52418;53.134;8.236;2022-10-17T06:32:34;0.90;;;0.90;;
10052;SDS011;52418;53.134;8.236;2022-10-17T06:35:02;1.00;;;1.00;;
10052;SDS011;52418;53.134;8.236;2022-10-17T06:37:31;0.90;;;0.90;;
10052;SDS011;52418;53.134;8.236;2022-10-17T06:39:58;1.00;;;1.00;;
10052;SDS011;52418;53.134;8.236;2022-10-17T06:42:23;0.90;;;0.90;;
10052;SDS011;52418;53.134;8.236;2022-10-17T06:44:48;0.90;;;0.90;;
10052;SDS011;52418;53.134;8.236;2022-10-17T06:47:13;1.00;;;1.00;;
10052;SDS011;52418;53.134;8.236;2022-10-17T06:49:38;1.10;;;1.10;;
10052;SDS011;52418;53.134;8.236;2022-10-17T06:52:20;1.00;;;1.00;;
10052;SDS011;52418;53.134;8.236;2022-10-17T06:54:45;0.90;;;0.90;;
10052;SDS011;52418;53.134;8.236;2022-10-17T06:57:10;0.93;;;0.93;;
10052;SDS011;52418;53.134;8.236;2022-10-17T06:59:40;1.00;;;1.00;;
10052;SDS011;52418;53.134;8.236;2022-10-17T07:02:05;1.00;;;1.00;;
10052;SDS011;52418;53.134;8.236;2022-10-17T07:04:30;1.00;;;1.00;;
10052;SDS011;52418;53.134;8.236;2022-10-17T07:09:26;1.00;;;1.00;;
10052;SDS011;52418;53.134;8.236;2022-10-17T07:11:52;1.00;;;1.00;;
10052;SDS011;52418;53.134;8.236;2022-10-17T07:14:17;1.00;;;1.00;;
10052;SDS011;52418;53.134;8.236;2022-10-17T07:16:42;1.00;;;1.00;;
10052;SDS011;52418;53.134;8.236;2022-10-17T07:19:07;1.00;;;1.00;;
10052;SDS011;52418;53.134;8.236;2022-10-17T07:21:32;1.05;;;1.05;;
10052;SDS011;52418;53.134;8.236;2022-10-17T07:24:00;1.00;;;1.00;;
10052;SDS011;52418;53.134;8.236;2022-10-17T07:26:42;1.10;;;1.10;;
10052;SDS011;52418;53.134;8.236;2022-10-17T07:29:07;1.00;;;1.00;;
10052;SDS011;52418;53.134;8.236;2022-10-17T07:31:33;1.00;;;1.00;;
10052;SDS011;52418;53.134;8.236;2022-10-17T07:34:12;1.10;;;1.10;;
10052;SDS011;52418;53.134;8.236;2022-10-17T07:36:38;1.10;;;1.10;;
10052;SDS011;52418;53.134;8.236;2022-10-17T07:39:03;1.00;;;1.00;;
10052;SDS011;52418;53.134;8.236;2022-10-17T07:41:28;1.10;;;1.10;;
10052;SDS011;52418;53.134;8.236;2022-10-17T07:43:54;1.08;;;1.08;;
10052;SDS011;52418;53.134;8.236;2022-10-17T07:46:21;1.20;;;1.20;;
10052;SDS011;52418;53.134;8.236;2022-10-17T07:48:46;1.10;;;1.10;;
10052;SDS011;52418;53.134;8.236;2022-10-17T07:51:12;1.00;;;1.00;;
10052;SDS011;52418;53.134;8.236;2022-10-17T07:53:38;1.10;;;1.10;;
10052;SDS011;52418;53.134;8.236;2022-10-17T07:56:06;1.10;;;1.10;;
10052;SDS011;52418;53.134;8.236;2022-10-17T07:58:32;1.10;;;1.10;;
10052;SDS011;52418;53.134;8.236;2022-10-17T08:01:01;1.00;;;1.00;;
10052;SDS011;52418;53.134;8.236;2022-10-17T08:03:26;1.00;;;1.00;;
10052;SDS011;52418;53.134;8.236;2022-10-17T08:05:55;1.10;;;1.10;;
10052;SDS011;52418;53.134;8.236;2022-10-17T08:08:20;1.10;;;1.10;;
10052;SDS011;52418;53.134;8.236;2022-10-17T08:10:45;1.20;;;1.20;;
10052;SDS011;52418;53.134;8.236;2022-10-17T08:13:10;1.17;;;1.17;;
10052;SDS011;52418;53.134;8.236;2022-10-17T08:15:36;1.15;;;1.15;;
10052;SDS011;52418;53.134;8.236;2022-10-17T08:18:01;1.10;;;1.10;;
10052;SDS011;52418;53.134;8.236;2022-10-17T08:20:26;1.20;;;1.20;;
10052;SDS011;52418;53.134;8.236;2022-10-17T08:22:54;1.00;;;1.00;;
10052;SDS011;52418;53.134;8.236;2022-10-17T08:25:19;1.00;;;1.00;;
10052;SDS011;52418;53.134;8.236;2022-10-17T08:27:45;1.20;;;1.20;;
10052;SDS011;52418;53.134;8.236;2022-10-17T08:30:10;1.10;;;1.10;;
10052;SDS011;52418;53.134;8.236;2022-10-17T08:32:35;1.10;;;1.10;;
10052;SDS011;52418;53.134;8.236;2022-10-17T08:35:00;1.20;;;1.20;;
10052;SDS011;52418;53.134;8.236;2022-10-17T08:37:26;1.20;;;1.20;;
10052;SDS011;52418;53.134;8.236;2022-10-17T08:39:51;1.13;;;1.13;;
10052;SDS011;52418;53.134;8.236;2022-10-17T08:42:29;1.10;;;1.10;;
10052;SDS011;52418;53.134;8.236;2022-10-17T08:47:26;1.20;;;1.20;;
10052;SDS011;52418;53.134;8.236;2022-10-17T08:49:53;1.20;;;1.20;;
10052;SDS011;52418;53.134;8.236;2022-10-17T08:55:21;1.30;;;1.30;;
10052;SDS011;52418;53.134;8.236;2022-10-17T08:57:48;1.38;;;1.30;;
10052;SDS011;52418;53.134;8.236;2022-10-17T09:00:17;1.20;;;1.20;;
10052;SDS011;52418;53.134;8.236;2022-10-17T09:05:29;1.10;;;1.10;;
10052;SDS011;52418;53.134;8.236;2022-10-17T09:08:02;1.20;;;1.20;;
10052;SDS011;52418;53.134;8.236;2022-10-17T09:10:42;1.20;;;1.20;;
10052;SDS011;52418;53.134;8.236;2022-10-17T09:13:16;1.30;;;1.30;;
10052;SDS011;52418;53.134;8.236;2022-10-17T09:18:40;1.20;;;1.20;;
10052;SDS011;52418;53.134;8.236;2022-10-17T09:22:08;1.35;;;1.35;;
10052;SDS011;52418;53.134;8.236;2022-10-17T09:24:02;1.20;;;1.20;;
10052;SDS011;52418;53.134;8.236;2022-10-17T09:26:28;1.20;;;1.20;;
10052;SDS011;52418;53.134;8.236;2022-10-17T09:28:55;1.30;;;1.30;;
10052;SDS011;52418;53.134;8.236;2022-10-17T09:31:24;1.50;;;1.40;;
10052;SDS011;52418;53.134;8.236;2022-10-17T09:33:51;1.30;;;1.30;;
10052;SDS011;52418;53.134;8.236;2022-10-17T09:36:29;1.50;;;1.40;;
10052;SDS011;52418;53.134;8.236;2022-10-17T09:38:57;1.30;;;1.30;;
10052;SDS011;52418;53.134;8.236;2022-10-17T09:41:29;1.20;;;1.20;;
10052;SDS011;52418;53.134;8.236;2022-10-17T09:43:56;1.20;;;1.20;;
10052;SDS011;52418;53.134;8.236;2022-10-17T09:46:31;1.27;;;1.27;;
10052;SDS011;52418;53.134;8.236;2022-10-17T09:49:19;1.20;;;1.20;;
10052;SDS011;52418;53.134;8.236;2022-10-17T09:51:45;1.30;;;1.30;;
10052;SDS011;52418;53.134;8.236;2022-10-17T09:54:25;1.25;;;1.25;;
10052;SDS011;52418;53.134;8.236;2022-10-17T09:57:01;1.27;;;1.27;;
10052;SDS011;52418;53.134;8.236;2022-10-17T09:59:35;1.30;;;1.30;;
10052;SDS011;52418;53.134;8.236;2022-10-17T10:02:33;1.20;;;1.20;;
10052;SDS011;52418;53.134;8.236;2022-10-17T10:04:56;1.20;;;1.20;;
10052;SDS011;52418;53.134;8.236;2022-10-17T10:07:22;1.20;;;1.20;;
10052;SDS011;52418;53.134;8.236;2022-10-17T10:09:47;1.30;;;1.30;;
10052;SDS011;52418;53.134;8.236;2022-10-17T10:12:21;1.30;;;1.30;;
10052;SDS011;52418;53.134;8.236;2022-10-17T10:14:47;1.10;;;1.10;;
10052;SDS011;52418;53.134;8.236;2022-10-17T10:17:26;1.20;;;1.20;;
10052;SDS011;52418;53.134;8.236;2022-10-17T10:19:51;1.17;;;1.17;;
10052;SDS011;52418;53.134;8.236;2022-10-17T10:22:17;1.27;;;1.27;;
10052;SDS011;52418;53.134;8.236;2022-10-17T10:24:43;1.27;;;1.27;;
10052;SDS011;52418;53.134;8.236;2022-10-17T10:27:15;1.30;;;1.30;;
10052;SDS011;52418;53.134;8.236;2022-10-17T10:29:50;1.25;;;1.25;;
10052;SDS011;52418;53.134;8.236;2022-10-17T10:34:46;1.20;;;1.20;;
10052;SDS011;52418;53.134;8.236;2022-10-17T10:37:24;1.20;;;1.20;;
10052;SDS011;52418;53.134;8.236;2022-10-17T10:44:45;1.20;;;1.20;;
10052;SDS011;52418;53.134;8.236;2022-10-17T10:47:25;1.13;;;1.13;;
10052;SDS011;52418;53.134;8.236;2022-10-17T10:49:51;1.00;;;1.00;;
10052;SDS011;52418;53.134;8.236;2022-10-17T10:52:20;1.00;;;1.00;;
10052;SDS011;52418;53.134;8.236;2022-10-17T10:54:54;1.10;;;1.10;;
10052;SDS011;52418;53.134;8.236;2022-10-17T10:57:22;1.10;;;1.10;;
10052;SDS011;52418;53.134;8.236;2022-10-17T11:02:29;0.90;;;0.90;;
10052;SDS011;52418;53.134;8.236;2022-10-17T11:04:59;0.80;;;0.80;;
10052;SDS011;52418;53.134;8.236;2022-10-17T11:07:34;1.00;;;1.00;;
10052;SDS011;52418;53.134;8.236;2022-10-17T11:10:09;0.98;;;0.98;;
10052;SDS011;52418;53.134;8.236;2022-10-17T11:12:53;0.90;;;0.90;;
10052;SDS011;52418;53.134;8.236;2022-10-17T11:18:00;0.90;;;0.90;;
10052;SDS011;52418;53.134;8.236;2022-10-17T11:20:28;1.00;;;1.00;;
10052;SDS011;52418;53.134;8.236;2022-10-17T11:22:55;0.90;;;0.90;;
10052;SDS011;52418;53.134;8.236;2022-10-17T11:25:33;1.00;;;1.00;;
10052;SDS011;52418;53.134;8.236;2022-10-17T11:27:58;1.08;;;1.08;;
10052;SDS011;52418;53.134;8.236;2022-10-17T11:30:25;1.00;;;1.00;;
10052;SDS011;52418;53.134;8.236;2022-10-17T11:32:52;1.00;;;1.00;;
10052;SDS011;52418;53.134;8.236;2022-10-17T11:35:31;0.90;;;0.90;;
10052;SDS011;52418;53.134;8.236;2022-10-17T11:38:44;0.90;;;0.90;;
10052;SDS011;52418;53.134;8.236;2022-10-17T11:40:44;1.00;;;1.00;;
10052;SDS011;52418;53.134;8.236;2022-10-17T11:45:55;1.00;;;1.00;;
10052;SDS011;52418;53.134;8.236;2022-10-17T11:48:29;1.00;;;1.00;;
10052;SDS011;52418;53.134;8.236;2022-10-17T11:50:59;0.90;;;0.90;;
10052;SDS011;52418;53.134;8.236;2022-10-17T11:53:28;0.90;;;0.90;;
10052;SDS011;52418;53.134;8.236;2022-10-17T11:55:57;1.00;;;1.00;;
10052;SDS011;52418;53.134;8.236;2022-10-17T12:03:39;1.00;;;1.00;;
10052;SDS011;52418;53.134;8.236;2022-10-17T12:06:10;1.10;;;1.10;;
10052;SDS011;52418;53.134;8.236;2022-10-17T12:15:53;1.20;;;1.20;;
10052;SDS011;52418;53.134;8.236;2022-10-17T12:18:18;1.20;;;1.20;;
10052;SDS011;52418;53.134;8.236;2022-10-17T12:20:47;1.17;;;1.17;;
10052;SDS011;52418;53.134;8.236;2022-10-17T12:23:20;1.10;;;1.10;;
10052;SDS011;52418;53.134;8.236;2022-10-17T12:25:53;1.20;;;1.20;;
10052;SDS011;52418;53.134;8.236;2022-10-17T12:28:26;1.00;;;1.00;;
10052;SDS011;52418;53.134;8.236;2022-10-17T12:38:45;1.10;;;1.10;;
10052;SDS011;52418;53.134;8.236;2022-10-17T12:41:11;1.10;;;1.10;;
10052;SDS011;52418;53.134;8.236;2022-10-17T12:43:42;1.00;;;1.00;;
10052;SDS011;52418;53.134;8.236;2022-10-17T12:46:08;1.08;;;1.08;;
10052;SDS011;52418;53.134;8.236;2022-10-17T12:51:09;1.10;;;1.10;;
10052;SDS011;52418;53.134;8.236;2022-10-17T12:53:38;1.05;;;1.05;;
10052;SDS011;52418;53.134;8.236;2022-10-17T12:56:05;1.02;;;1.02;;
10052;SDS011;52418;53.134;8.236;2022-10-17T12:58:30;1.00;;;1.00;;
10052;SDS011;52418;53.134;8.236;2022-10-17T13:00:56;1.00;;;1.00;;
10052;SDS011;52418;53.134;8.236;2022-10-17T13:03:23;1.00;;;1.00;;
10052;SDS011;52418;53.134;8.236;2022-10-17T13:05:50;1.00;;;1.00;;
10052;SDS011;52418;53.134;8.236;2022-10-17T13:08:21;1.10;;;1.10;;
10052;SDS011;52418;53.134;8.236;2022-10-17T13:10:47;0.90;;;0.90;;
10052;SDS011;52418;53.134;8.236;2022-10-17T13:13:20;0.90;;;0.90;;
10052;SDS011;52418;53.134;8.236;2022-10-17T13:15:53;0.90;;;0.90;;
10052;SDS011;52418;53.134;8.236;2022-10-17T13:18:23;0.80;;;0.80;;
10052;SDS011;52418;53.134;8.236;2022-10-17T13:21:13;0.90;;;0.90;;
10052;SDS011;52418;53.134;8.236;2022-10-17T13:23:39;0.80;;;0.80;;
10052;SDS011;52418;53.134;8.236;2022-10-17T13:26:12;0.80;;;0.80;;
10052;SDS011;52418;53.134;8.236;2022-10-17T13:28:39;0.90;;;0.90;;
10052;SDS011;52418;53.134;8.236;2022-10-17T13:31:04;0.88;;;0.88;;
10052;SDS011;52418;53.134;8.236;2022-10-17T13:33:34;0.97;;;0.97;;
10052;SDS011;52418;53.134;8.236;2022-10-17T13:35:59;0.90;;;0.90;;
10052;SDS011;52418;53.134;8.236;2022-10-17T13:38:26;0.90;;;0.90;;
10052;SDS011;52418;53.134;8.236;2022-10-17T13:40:52;0.90;;;0.90;;
10052;SDS011;52418;53.134;8.236;2022-10-17T13:43:18;1.05;;;1.05;;
10052;SDS011;52418;53.134;8.236;2022-10-17T13:45:45;1.10;;;1.10;;
10052;SDS011;52418;53.134;8.236;2022-10-17T13:48:19;1.10;;;1.10;;
10052;SDS011;52418;53.134;8.236;2022-10-17T13:50:46;1.05;;;1.05;;
10052;SDS011;52418;53.134;8.236;2022-10-17T13:53:19;1.20;;;1.20;;
10052;SDS011;52418;53.134;8.236;2022-10-17T13:55:58;1.00;;;1.00;;
10052;SDS011;52418;53.134;8.236;2022-10-17T13:58:24;1.10;;;1.10;;
10052;SDS011;52418;53.134;8.236;2022-10-17T14:00:50;1.00;;;1.00;;
10052;SDS011;52418;53.134;8.236;2022-10-17T14:03:16;1.00;;;1.00;;
10052;SDS011;52418;53.134;8.236;2022-10-17T14:08:25;1.00;;;1.00;;
10052;SDS011;52418;53.134;8.236;2022-10-17T14:10:50;1.10;;;1.10;;
10052;SDS011;52418;53.134;8.236;2022-10-17T14:15:44;1.00;;;1.00;;
10052;SDS011;52418;53.134;8.236;2022-10-17T14:18:13;1.02;;;1.02;;
10052;SDS011;52418;53.134;8.236;2022-10-17T14:20:44;1.10;;;1.10;;
10052;SDS011;52418;53.134;8.236;2022-10-17T14:26:03;1.10;;;1.10;;
10052;SDS011;52418;53.134;8.236;2022-10-17T14:28:28;1.00;;;1.00;;
10052;SDS011;52418;53.134;8.236;2022-10-17T14:30:54;1.20;;;1.20;;
10052;SDS011;52418;53.134;8.236;2022-10-17T14:33:32;1.00;;;1.00;;
10052;SDS011;52418;53.134;8.236;2022-10-17T14:35:59;1.15;;;1.15;;
10052;SDS011;52418;53.134;8.236;2022-10-17T14:38:25;1.10;;;1.10;;
10052;SDS011;52418;53.134;8.236;2022-10-17T14:40:52;1.30;;;1.30;;
10052;SDS011;52418;53.134;8.236;2022-10-17T14:43:20;1.10;;;1.10;;
10052;SDS011;52418;53.134;8.236;2022-10-17T14:45:45;1.10;;;1.10;;
10052;SDS011;52418;53.134;8.236;2022-10-17T14:48:13;1.20;;;1.20;;
10052;SDS011;52418;53.134;8.236;2022-10-17T14:50:38;1.10;;;1.10;;
10052;SDS011;52418;53.134;8.236;2022-10-17T14:53:05;1.30;;;1.30;;
10052;SDS011;52418;53.134;8.236;2022-10-17T14:55:32;1.20;;;1.20;;
10052;SDS011;52418;53.134;8.236;2022-10-17T14:57:58;1.20;;;1.20;;
10052;SDS011;52418;53.134;8.236;2022-10-17T15:00:23;1.30;;;1.30;;
10052;SDS011;52418;53.134;8.236;2022-10-17T15:02:49;1.20;;;1.20;;
10052;SDS011;52418;53.134;8.236;2022-10-17T15:05:14;1.23;;;1.23;;
10052;SDS011;52418;53.134;8.236;2022-10-17T15:07:40;1.20;;;1.20;;
10052;SDS011;52418;53.134;8.236;2022-10-17T15:10:06;1.10;;;1.10;;
10052;SDS011;52418;53.134;8.236;2022-10-17T15:12:31;1.20;;;1.20;;
10052;SDS011;52418;53.134;8.236;2022-10-17T15:14:56;1.10;;;1.10;;
10052;SDS011;52418;53.134;8.236;2022-10-17T15:19:50;1.17;;;1.17;;
10052;SDS011;52418;53.134;8.236;2022-10-17T15:22:15;1.10;;;1.10;;
10052;SDS011;52418;53.134;8.236;2022-10-17T15:24:42;1.10;;;1.10;;
10052;SDS011;52418;53.134;8.236;2022-10-17T15:27:14;1.20;;;1.20;;
10052;SDS011;52418;53.134;8.236;2022-10-17T15:29:39;1.10;;;1.10;;
10052;SDS011;52418;53.134;8.236;2022-10-17T15:32:05;1.00;;;1.00;;
10052;SDS011;52418;53.134;8.236;2022-10-17T15:34:30;1.10;;;1.10;;
10052;SDS011;52418;53.134;8.236;2022-10-17T15:36:55;1.02;;;1.02;;
10052;SDS011;52418;53.134;8.236;2022-10-17T15:39:20;1.20;;;1.20;;
10052;SDS011;52418;53.134;8.236;2022-10-17T15:41:45;1.30;;;1.30;;
10052;SDS011;52418;53.134;8.236;2022-10-17T15:44:12;1.50;;;1.40;;
10052;SDS011;52418;53.134;8.236;2022-10-17T15:46:37;1.20;;;1.20;;
10052;SDS011;52418;53.134;8.236;2022-10-17T15:49:04;1.00;;;1.00;;
10052;SDS011;52418;53.134;8.236;2022-10-17T15:51:31;1.20;;;1.20;;
10052;SDS011;52418;53.134;8.236;2022-10-17T15:53:57;1.23;;;1.23;;
10052;SDS011;52418;53.134;8.236;2022-10-17T15:56:25;1.10;;;1.10;;
10052;SDS011;52418;53.134;8.236;2022-10-17T15:58:51;1.20;;;1.20;;
10052;SDS011;52418;53.134;8.236;2022-10-17T16:01:21;1.10;;;1.10;;
10052;SDS011;52418;53.134;8.236;2022-10-17T16:03:46;1.17;;;1.17;;
10052;SDS011;52418;53.134;8.236;2022-10-17T16:06:13;1.10;;;1.10;;
10052;SDS011;52418;53.134;8.236;2022-10-17T16:08:38;1.02;;;1.02;;
10052;SDS011;52418;53.134;8.236;2022-10-17T16:11:03;1.20;;;1.20;;
10052;SDS011;52418;53.134;8.236;2022-10-17T16:13:28;1.20;;;1.20;;
10052;SDS011;52418;53.134;8.236;2022-10-17T16:15:53;1.20;;;1.20;;
10052;SDS011;52418;53.134;8.236;2022-10-17T16:18:18;1.20;;;1.20;;
10052;SDS011;52418;53.134;8.236;2022-10-17T16:20:45;1.20;;;1.20;;
10052;SDS011;52418;53.134;8.236;2022-10-17T16:23:11;1.20;;;1.20;;
10052;SDS011;52418;53.134;8.236;2022-10-17T16:25:36;1.20;;;1.20;;